createdAt,value
2019-02-05T00:01:49.515Z,9.13
2019-02-05T00:04:17.798Z,8.45
2019-02-05T00:09:19.594Z,10.40
2019-02-05T00:12:07.528Z,9.03
2019-02-05T00:14:35.814Z,9.40
2019-02-05T00:19:58.458Z,13.20
2019-02-05T00:22:28.473Z,9.88
2019-02-05T00:24:56.785Z,9.85
2019-02-05T00:27:25.069Z,8.83
2019-02-05T00:30:13.141Z,10.23
2019-02-05T00:33:02.784Z,11.00
2019-02-05T00:35:31.097Z,8.73
2019-02-05T00:37:59.412Z,13.98
2019-02-05T00:40:48.640Z,11.90
2019-02-05T00:43:16.945Z,13.65
2019-02-05T00:46:04.597Z,9.30
2019-02-05T00:48:32.893Z,13.93
2019-02-05T00:51:01.256Z,12.68
2019-02-05T00:53:29.800Z,12.43
2019-02-05T00:55:58.104Z,12.55
2019-02-05T00:58:26.401Z,14.07
2019-02-05T01:00:54.724Z,11.80
2019-02-05T01:03:42.393Z,11.23
2019-02-05T01:06:10.774Z,14.60
2019-02-05T01:08:39.082Z,13.05
2019-02-05T01:11:07.702Z,13.53
2019-02-05T01:16:09.562Z,13.33
2019-02-05T01:18:40.010Z,12.18
2019-02-05T01:23:41.880Z,11.27
2019-02-05T01:26:10.201Z,13.90
2019-02-05T01:28:38.514Z,19.02
2019-02-05T01:31:07.118Z,13.80
2019-02-05T01:33:35.705Z,15.13
2019-02-05T01:36:04.037Z,14.33
2019-02-05T01:38:32.682Z,15.93
2019-02-05T01:41:20.359Z,13.62
2019-02-05T01:43:50.399Z,14.00
2019-02-05T01:46:18.707Z,16.00
2019-02-05T01:48:46.996Z,17.75
2019-02-05T01:51:15.323Z,20.50
2019-02-05T01:53:43.628Z,17.00
2019-02-05T01:56:11.945Z,12.87
2019-02-05T01:58:40.240Z,18.62
2019-02-05T02:01:48.593Z,15.43
2019-02-05T02:04:16.893Z,15.15
2019-02-05T02:07:04.739Z,14.70
2019-02-05T02:09:33.021Z,14.68
2019-02-05T02:12:20.972Z,16.15
2019-02-05T02:15:10.136Z,15.20
2019-02-05T02:20:46.597Z,13.95
2019-02-05T02:23:14.908Z,15.55
2019-02-05T02:25:43.288Z,17.17
2019-02-05T02:28:30.952Z,17.73
2019-02-05T02:31:20.361Z,13.53
2019-02-05T02:33:48.662Z,15.00
2019-02-05T02:36:36.321Z,14.95
2019-02-05T02:39:44.658Z,13.10
2019-02-05T02:42:12.988Z,15.47
2019-02-05T02:45:00.675Z,15.53
2019-02-05T02:47:28.994Z,14.18
2019-02-05T02:50:16.415Z,13.60
2019-02-05T02:52:45.460Z,13.58
2019-02-05T02:55:54.103Z,14.70
2019-02-05T02:58:22.428Z,12.90
2019-02-05T03:00:52.430Z,13.65
2019-02-05T03:03:21.066Z,15.23
2019-02-05T03:05:49.746Z,14.87
2019-02-05T03:08:18.020Z,13.70
2019-02-05T03:10:46.704Z,18.80
2019-02-05T03:13:14.994Z,16.10
2019-02-05T03:16:02.720Z,12.30
2019-02-05T03:18:31.017Z,14.00
2019-02-05T03:20:59.353Z,14.80
2019-02-05T03:23:27.638Z,13.58
2019-02-05T03:25:56.008Z,13.60
2019-02-05T03:28:24.304Z,14.73
2019-02-05T03:30:53.129Z,14.13
2019-02-05T03:33:42.046Z,14.38
2019-02-05T03:36:10.353Z,17.20
2019-02-05T03:38:38.651Z,13.58
2019-02-05T03:44:01.376Z,14.10
2019-02-05T03:47:09.730Z,13.58
2019-02-05T03:53:10.250Z,13.10
2019-02-05T03:56:17.267Z,12.58
2019-02-05T03:59:27.194Z,13.13
2019-02-05T04:02:34.190Z,13.90
2019-02-05T04:05:41.228Z,14.60
2019-02-05T04:08:48.252Z,13.53
2019-02-05T04:11:55.297Z,12.77
2019-02-05T04:15:02.306Z,13.43
2019-02-05T04:18:10.706Z,13.40
2019-02-05T04:21:19.454Z,13.22
2019-02-05T04:24:27.864Z,12.88
2019-02-05T04:27:45.093Z,15.10
2019-02-05T04:30:45.249Z,12.00
2019-02-05T04:33:55.335Z,19.40
2019-02-05T04:37:02.378Z,12.73
2019-02-05T04:42:59.859Z,13.13
2019-02-05T04:48:58.631Z,13.40
2019-02-05T04:52:05.631Z,12.93
2019-02-05T04:55:15.437Z,15.28
2019-02-05T04:58:23.557Z,13.75
2019-02-05T05:01:32.354Z,11.75
2019-02-05T05:08:11.423Z,11.12
2019-02-05T05:10:58.863Z,12.28
2019-02-05T05:16:41.413Z,15.60
2019-02-05T05:19:50.115Z,15.70
2019-02-05T05:22:58.675Z,14.00
2019-02-05T05:26:07.040Z,13.18
2019-02-05T05:29:17.091Z,14.15
2019-02-05T05:31:45.402Z,14.47
2019-02-05T05:34:13.696Z,16.23
2019-02-05T05:37:02.588Z,17.42
2019-02-05T05:39:30.890Z,17.17
2019-02-05T05:42:18.588Z,18.23
2019-02-05T05:44:48.887Z,16.20
2019-02-05T05:47:17.206Z,18.35
2019-02-05T05:49:45.594Z,18.37
2019-02-05T05:52:13.886Z,17.40
2019-02-05T05:54:42.402Z,18.60
2019-02-05T05:57:12.282Z,22.83
2019-02-05T05:59:40.609Z,18.40
2019-02-05T06:02:08.898Z,22.15
2019-02-05T06:04:37.216Z,25.45
2019-02-05T06:07:24.896Z,19.65
2019-02-05T06:09:53.283Z,22.98
2019-02-05T06:12:40.967Z,22.60
2019-02-05T06:15:49.328Z,24.80
2019-02-05T06:18:19.340Z,21.27
2019-02-05T06:20:47.665Z,22.75
2019-02-05T06:23:35.113Z,26.70
2019-02-05T06:26:03.706Z,24.80
2019-02-05T06:28:34.726Z,25.30
2019-02-05T06:31:02.325Z,29.42
2019-02-05T06:33:30.613Z,26.93
2019-02-05T06:41:13.049Z,26.15
2019-02-05T06:43:41.448Z,28.32
2019-02-05T06:46:10.107Z,26.52
2019-02-05T06:48:57.802Z,23.62
2019-02-05T06:51:45.212Z,30.57
2019-02-05T06:54:13.550Z,27.90
2019-02-05T06:56:42.533Z,29.80
2019-02-05T06:59:11.888Z,27.40
2019-02-05T07:01:40.200Z,30.72
2019-02-05T07:04:08.514Z,27.75
2019-02-05T07:06:55.984Z,28.10
2019-02-05T07:11:58.028Z,29.32
2019-02-05T07:14:26.792Z,34.90
2019-02-05T07:16:55.476Z,31.17
2019-02-05T07:19:25.524Z,33.70
2019-02-05T07:22:12.989Z,31.25
2019-02-05T07:24:41.336Z,31.95
2019-02-05T07:27:09.650Z,33.35
2019-02-05T07:29:38.246Z,36.00
2019-02-05T07:32:08.581Z,30.15
2019-02-05T07:34:56.297Z,28.30
2019-02-05T07:37:24.717Z,33.15
2019-02-05T07:39:53.052Z,33.42
2019-02-05T07:42:21.383Z,36.47
2019-02-05T07:45:29.843Z,35.83
2019-02-05T07:48:17.526Z,32.75
2019-02-05T07:50:47.654Z,35.52
2019-02-05T07:53:35.098Z,35.40
2019-02-05T07:56:03.440Z,36.83
2019-02-05T07:58:32.098Z,36.77
2019-02-05T08:01:00.420Z,39.00
2019-02-05T08:03:30.498Z,36.20
2019-02-05T08:05:58.836Z,37.08
2019-02-05T08:08:27.468Z,35.35
2019-02-05T08:11:35.815Z,36.42
2019-02-05T08:14:44.190Z,37.63
2019-02-05T08:17:12.526Z,40.08
2019-02-05T08:19:41.169Z,38.95
2019-02-05T08:22:09.736Z,36.93
2019-02-05T08:24:39.578Z,35.83
2019-02-05T08:27:07.892Z,36.23
2019-02-05T08:29:36.238Z,37.83
2019-02-05T08:32:44.871Z,39.20
2019-02-05T08:35:54.566Z,38.58
2019-02-05T08:38:42.879Z,46.53
2019-02-05T08:41:11.511Z,40.33
2019-02-05T08:43:59.212Z,36.50
2019-02-05T08:46:27.563Z,38.77
2019-02-05T08:48:55.879Z,37.88
2019-02-05T08:51:24.215Z,41.18
2019-02-05T08:56:40.180Z,38.35
2019-02-05T08:59:08.858Z,40.75
2019-02-05T09:01:58.380Z,41.33
2019-02-05T09:04:26.772Z,32.17
2019-02-05T09:06:55.082Z,39.48
2019-02-05T09:09:23.676Z,40.03
2019-02-05T09:11:52.005Z,37.80
2019-02-05T09:14:22.062Z,41.68
2019-02-05T09:16:50.766Z,36.83
2019-02-05T09:19:19.113Z,41.50
2019-02-05T09:21:47.719Z,39.60
2019-02-05T09:24:16.061Z,37.83
2019-02-05T09:26:44.389Z,39.50
2019-02-05T09:29:12.726Z,39.83
2019-02-05T09:31:42.780Z,40.83
2019-02-05T09:34:30.486Z,40.00
2019-02-05T09:36:58.816Z,37.75
2019-02-05T09:39:27.170Z,35.43
2019-02-05T09:41:55.522Z,36.53
2019-02-05T09:44:25.555Z,35.88
2019-02-05T09:46:53.896Z,37.00
2019-02-05T09:49:22.223Z,39.60
2019-02-05T09:51:50.618Z,37.10
2019-02-05T09:54:19.285Z,34.38
2019-02-05T09:56:47.973Z,41.08
2019-02-05T09:59:16.301Z,34.10
2019-02-05T10:01:46.359Z,37.90
2019-02-05T10:04:15.049Z,38.28
2019-02-05T10:06:43.568Z,34.38
2019-02-05T10:09:13.488Z,34.78
2019-02-05T10:12:00.961Z,37.25
2019-02-05T10:14:29.664Z,36.88
2019-02-05T10:16:58.007Z,44.67
2019-02-05T10:19:26.326Z,34.40
2019-02-05T10:22:07.612Z,30.35
2019-02-05T10:24:35.936Z,32.03
2019-02-05T10:27:04.547Z,31.50
2019-02-05T10:29:34.615Z,30.68
2019-02-05T10:32:02.924Z,27.13
2019-02-05T10:34:50.398Z,27.95
2019-02-05T10:37:18.724Z,27.80
2019-02-05T10:40:27.413Z,30.27
2019-02-05T10:42:55.728Z,29.00
2019-02-05T10:48:37.055Z,32.03
2019-02-05T10:54:07.003Z,26.60
2019-02-05T10:56:35.358Z,32.50
2019-02-05T10:59:22.872Z,26.97
2019-02-05T11:01:51.233Z,25.25
2019-02-05T11:04:21.279Z,25.23
2019-02-05T11:06:49.624Z,26.15
2019-02-05T11:09:17.953Z,28.50
2019-02-05T11:12:05.658Z,26.33
2019-02-05T11:14:33.993Z,29.60
2019-02-05T11:19:58.462Z,29.00
2019-02-05T11:25:00.547Z,27.77
2019-02-05T11:27:30.623Z,30.85
2019-02-05T11:29:58.948Z,30.02
2019-02-05T11:32:27.286Z,37.33
2019-02-05T11:37:43.333Z,34.92
2019-02-05T11:40:33.708Z,34.67
2019-02-05T11:43:02.421Z,35.68
2019-02-05T11:48:39.111Z,33.95
2019-02-05T11:51:26.559Z,33.75
2019-02-05T11:53:55.190Z,34.43
2019-02-05T11:56:25.229Z,30.52
2019-02-05T11:58:53.598Z,35.38
2019-02-05T12:01:21.911Z,34.63
2019-02-05T12:03:50.563Z,32.80
2019-02-05T12:06:38.226Z,31.90
2019-02-05T12:09:48.600Z,29.32
2019-02-05T12:12:36.062Z,27.62
2019-02-05T12:15:44.451Z,26.48
2019-02-05T12:18:32.218Z,29.67
2019-02-05T12:21:00.815Z,29.07
2019-02-05T12:23:29.167Z,27.35
2019-02-05T12:25:57.515Z,28.07
2019-02-05T12:28:25.875Z,28.98
2019-02-05T12:30:54.199Z,24.43
2019-02-05T12:33:41.907Z,25.30
2019-02-05T12:36:10.663Z,24.15
2019-02-05T12:38:39.330Z,27.62
2019-02-05T12:43:42.113Z,27.00
2019-02-05T12:46:12.175Z,28.38
2019-02-05T12:48:59.901Z,25.85
2019-02-05T12:51:28.258Z,30.37
2019-02-05T12:53:56.844Z,25.68
2019-02-05T12:56:25.549Z,26.23
2019-02-05T12:58:53.897Z,25.10
2019-02-05T13:01:22.208Z,25.43
2019-02-05T13:03:50.544Z,30.15
2019-02-05T13:06:18.859Z,29.95
2019-02-05T13:08:47.208Z,26.93
2019-02-05T13:11:15.800Z,27.87
2019-02-05T13:13:46.126Z,27.32
2019-02-05T13:16:14.453Z,27.05
2019-02-05T13:19:02.123Z,29.65
2019-02-05T13:21:30.451Z,29.37
2019-02-05T13:24:18.151Z,30.40
2019-02-05T13:27:05.641Z,29.02
2019-02-05T13:32:08.690Z,26.60
2019-02-05T13:34:56.538Z,24.53
2019-02-05T13:37:43.998Z,31.75
2019-02-05T13:40:52.401Z,27.17
2019-02-05T13:43:20.733Z,28.47
2019-02-05T13:45:49.073Z,29.65
2019-02-05T13:48:37.047Z,30.55
2019-02-05T13:51:45.416Z,26.73
2019-02-05T13:57:22.120Z,30.00
2019-02-05T13:59:50.436Z,30.23
2019-02-05T14:02:37.908Z,27.90
2019-02-05T14:05:25.625Z,30.08
2019-02-05T14:08:13.517Z,29.67
2019-02-05T14:13:49.318Z,30.02
2019-02-05T14:16:17.640Z,31.20
2019-02-05T14:18:54.912Z,29.15
2019-02-05T14:21:16.309Z,31.60
2019-02-05T14:24:04.278Z,33.67
2019-02-05T14:26:51.964Z,29.63
2019-02-05T14:31:53.887Z,36.08
2019-02-05T14:34:22.514Z,32.63
2019-02-05T14:37:10.200Z,32.80
2019-02-05T14:39:57.755Z,32.27
2019-02-05T14:42:45.539Z,30.40
2019-02-05T14:45:53.941Z,30.85
2019-02-05T14:48:22.263Z,35.40
2019-02-05T14:50:50.884Z,29.98
2019-02-05T14:56:06.909Z,33.67
2019-02-05T14:58:35.244Z,32.23
2019-02-05T15:01:22.709Z,31.50
2019-02-05T15:03:51.018Z,32.25
2019-02-05T15:09:13.840Z,30.90
2019-02-05T15:11:42.176Z,34.55
2019-02-05T15:14:30.164Z,32.33
2019-02-05T15:16:58.513Z,31.20
2019-02-05T15:19:46.297Z,33.95
2019-02-05T15:22:34.132Z,36.88
2019-02-05T15:25:02.458Z,35.33
2019-02-05T15:27:30.950Z,38.15
2019-02-05T15:30:18.648Z,33.53
2019-02-05T15:33:08.098Z,34.50
2019-02-05T15:38:25.455Z,36.40
2019-02-05T15:40:53.850Z,34.88
2019-02-05T15:43:22.182Z,34.10
2019-02-05T15:45:50.540Z,35.92
2019-02-05T15:48:19.123Z,31.23
2019-02-05T15:50:47.722Z,37.80
2019-02-05T15:53:35.280Z,35.55
2019-02-05T15:56:03.619Z,37.85
2019-02-05T15:58:32.208Z,37.85
2019-02-05T16:01:19.899Z,35.20
2019-02-05T16:04:07.571Z,36.35
2019-02-05T16:06:35.892Z,174.65
2019-02-05T16:09:44.282Z,44.45
2019-02-05T16:12:12.938Z,39.25
2019-02-05T16:15:00.608Z,42.48
2019-02-05T16:18:09.009Z,42.33
2019-02-05T16:20:37.360Z,41.20
2019-02-05T16:23:25.404Z,44.88
2019-02-05T16:25:54.097Z,41.63
2019-02-05T16:28:22.419Z,40.83
2019-02-05T16:36:11.743Z,44.70
2019-02-05T16:38:40.077Z,54.98
2019-02-05T16:41:28.050Z,65.12
2019-02-05T16:44:15.509Z,62.98
2019-02-05T16:46:44.113Z,42.38
2019-02-05T16:49:32.699Z,40.52
2019-02-05T16:52:01.418Z,39.50
2019-02-05T16:54:48.963Z,42.35
2019-02-05T16:57:17.271Z,43.77
2019-02-05T16:59:45.932Z,40.12
2019-02-05T17:02:14.610Z,39.23
2019-02-05T17:04:44.672Z,39.30
2019-02-05T17:07:32.423Z,39.95
2019-02-05T17:12:34.673Z,36.33
2019-02-05T17:15:44.774Z,35.98
2019-02-05T17:18:32.499Z,42.25
2019-02-05T17:21:19.946Z,34.23
2019-02-05T17:23:48.290Z,38.00
2019-02-05T17:26:17.031Z,36.03
2019-02-05T17:28:45.614Z,39.58
2019-02-05T17:31:33.560Z,35.03
2019-02-05T17:36:49.229Z,39.67
2019-02-05T17:39:17.581Z,38.00
2019-02-05T17:44:40.417Z,39.58
2019-02-05T17:47:08.752Z,38.35
2019-02-05T17:49:38.782Z,40.60
2019-02-05T17:54:54.696Z,37.85
2019-02-05T17:57:23.033Z,37.15
2019-02-05T17:59:53.112Z,37.80
2019-02-05T18:02:21.427Z,36.15
2019-02-05T18:05:29.899Z,38.28
2019-02-05T18:08:00.219Z,36.85
2019-02-05T18:11:08.933Z,39.98
2019-02-05T18:13:37.245Z,42.20
2019-02-05T18:16:45.636Z,110.15
2019-02-05T18:22:24.476Z,41.98
2019-02-05T18:24:52.824Z,41.50
2019-02-05T18:30:52.407Z,39.90
2019-02-05T18:33:20.741Z,39.63
2019-02-05T18:35:49.347Z,38.10
2019-02-05T18:38:17.696Z,42.80
2019-02-05T18:40:46.028Z,42.40
2019-02-05T18:43:14.695Z,39.65
2019-02-05T18:46:02.399Z,41.42
2019-02-05T18:48:31.124Z,40.57
2019-02-05T18:53:46.780Z,38.15
2019-02-05T18:56:36.201Z,38.42
2019-02-05T18:59:44.566Z,36.50
2019-02-05T19:02:32.565Z,37.42
2019-02-05T19:05:01.228Z,37.95
2019-02-05T19:07:29.941Z,34.38
2019-02-05T19:10:00.353Z,36.80
2019-02-05T19:12:28.677Z,36.40
2019-02-05T19:20:45.017Z,35.25
2019-02-05T19:23:32.988Z,31.73
2019-02-05T19:26:20.441Z,28.70
2019-02-05T19:34:43.918Z,28.10
2019-02-05T19:37:12.605Z,27.27
2019-02-05T19:42:34.500Z,29.35
2019-02-05T19:47:42.276Z,23.57
2019-02-05T19:50:30.082Z,29.48
2019-02-05T19:53:17.521Z,29.60
2019-02-05T19:56:05.264Z,37.98
2019-02-05T19:58:35.311Z,31.97
2019-02-05T20:01:03.712Z,31.30
2019-02-05T20:03:51.409Z,32.10
2019-02-05T20:06:38.890Z,29.90
2019-02-05T20:09:47.249Z,29.87
2019-02-05T20:12:34.976Z,30.17
2019-02-05T20:18:11.481Z,31.93
2019-02-05T20:20:39.836Z,29.75
2019-02-05T20:23:08.183Z,34.03
2019-02-05T20:25:36.501Z,29.60
2019-02-05T20:28:44.887Z,32.63
2019-02-05T20:31:32.343Z,28.10
2019-02-05T20:34:19.826Z,32.80
2019-02-05T20:36:48.138Z,31.73
2019-02-05T20:39:56.602Z,30.05
2019-02-05T20:42:26.568Z,32.67
2019-02-05T20:47:28.947Z,34.05
2019-02-05T20:49:57.302Z,34.30
2019-02-05T20:52:25.630Z,40.40
2019-02-05T20:54:53.973Z,38.77
2019-02-05T20:57:22.296Z,32.08
2019-02-05T20:59:52.352Z,36.35
2019-02-05T21:02:20.792Z,38.45
2019-02-05T21:05:08.276Z,35.78
2019-02-05T21:07:56.049Z,34.08
2019-02-05T21:11:04.417Z,35.03
2019-02-05T21:13:32.748Z,36.05
2019-02-05T21:16:22.268Z,34.50
2019-02-05T21:21:37.918Z,49.15
2019-02-05T21:24:07.956Z,46.73
2019-02-05T21:26:55.679Z,68.45
2019-02-05T21:32:11.328Z,93.07
2019-02-05T21:34:59.014Z,95.03
2019-02-05T21:37:27.609Z,123.10
2019-02-05T21:40:15.332Z,127.58
2019-02-05T21:43:23.714Z,100.58
2019-02-05T21:45:52.077Z,114.70
2019-02-05T21:48:22.153Z,112.42
2019-02-05T21:50:50.780Z,103.22
2019-02-05T21:53:19.462Z,85.12
2019-02-05T21:58:35.123Z,81.28
2019-02-05T22:01:05.186Z,71.92
2019-02-05T22:03:33.489Z,67.35
2019-02-05T22:06:21.175Z,89.20
2019-02-05T22:09:09.174Z,72.65
2019-02-05T22:11:37.486Z,62.80
2019-02-05T22:14:45.896Z,64.77
2019-02-05T22:17:18.268Z,59.53
2019-02-05T22:19:46.032Z,44.77
2019-02-05T22:22:33.720Z,45.83
2019-02-05T22:25:21.451Z,42.13
2019-02-05T22:28:09.573Z,47.50
2019-02-05T22:31:19.670Z,46.57
2019-02-05T22:36:35.324Z,47.30
2019-02-05T22:42:11.732Z,49.08
2019-02-05T22:47:29.135Z,44.35
2019-02-05T22:49:57.448Z,50.58
2019-02-05T22:52:26.044Z,42.30
2019-02-05T22:54:56.138Z,43.40
2019-02-05T22:57:24.502Z,40.90
2019-02-05T22:59:52.815Z,40.35
2019-02-05T23:05:40.343Z,40.45
2019-02-05T23:08:48.971Z,38.50
2019-02-05T23:11:57.747Z,40.92
2019-02-05T23:14:26.151Z,44.53
2019-02-05T23:16:54.743Z,40.33
2019-02-05T23:19:44.256Z,45.90
2019-02-05T23:22:12.541Z,44.80
2019-02-05T23:24:40.848Z,46.55
2019-02-05T23:27:09.545Z,43.13
2019-02-05T23:29:37.867Z,43.70
2019-02-05T23:32:06.238Z,42.90
2019-02-05T23:34:34.578Z,43.60
2019-02-05T23:37:02.892Z,41.50
2019-02-05T23:39:31.537Z,43.98
2019-02-05T23:42:19.293Z,40.38
2019-02-05T23:45:06.767Z,40.70
2019-02-05T23:48:15.106Z,43.15
2019-02-05T23:50:43.416Z,39.58
2019-02-05T23:53:11.720Z,43.63
2019-02-05T23:55:40.055Z,40.08
2019-02-05T23:58:08.346Z,36.60
